Terminal Aerodrome Forecast
Issued by NWS Wichita, KS

Home | Current Version | Previous Version | Text Only | Print | Product List | Glossary On
Versions: 1 2 3 4 5 6 7 8 9 10 11 12 13 14 15 16 17
000
FTUS43 KICT 241700
TAFICT
TAF
KICT 241734Z 2418/2518 13012G18KT P6SM SKC
     FM250000 16012KT P6SM SCT250
     FM250900 19012KT P6SM SKC
     FM251500 20015G25KT P6SM BKN250=

USA.gov is the U.S. government's official web portal to all federal, state and local government web resources and services.